createdAt,value
2022-11-09T00:01:20.807Z,0.00
2022-11-09T00:01:59.809Z,0.00
2022-11-09T00:03:00.831Z,0.00
2022-11-09T00:03:59.766Z,0.00
2022-11-09T00:04:59.763Z,0.00
2022-11-09T00:05:59.761Z,0.00
2022-11-09T00:06:59.819Z,0.00
2022-11-09T00:07:59.725Z,0.00
2022-11-09T00:09:05.765Z,0.00
2022-11-09T00:10:00.790Z,0.00
2022-11-09T00:10:59.705Z,0.00
2022-11-09T00:11:59.684Z,0.00
2022-11-09T00:12:59.689Z,0.00
2022-11-09T00:13:59.655Z,0.00
2022-11-09T00:14:59.773Z,0.00
2022-11-09T00:15:59.652Z,0.00
2022-11-09T00:16:59.637Z,0.00
2022-11-09T00:17:59.629Z,0.00
2022-11-09T00:18:59.615Z,0.00
2022-11-09T00:19:59.759Z,0.00
2022-11-09T00:20:59.587Z,0.00
2022-11-09T00:21:59.564Z,0.00
2022-11-09T00:22:59.564Z,0.00
2022-11-09T00:23:59.583Z,0.00
2022-11-09T00:24:59.755Z,0.00
2022-11-09T00:25:59.536Z,0.00
2022-11-09T00:26:59.525Z,0.00
2022-11-09T00:27:59.515Z,0.00
2022-11-09T00:28:59.509Z,0.00
2022-11-09T00:29:59.771Z,0.00
2022-11-09T00:30:59.472Z,0.00
2022-11-09T00:32:00.255Z,0.00
2022-11-09T00:33:00.233Z,0.00
2022-11-09T00:34:00.468Z,0.00
2022-11-09T00:34:59.452Z,0.00
2022-11-09T00:36:00.235Z,0.00
2022-11-09T00:36:59.408Z,0.00
2022-11-09T00:37:59.503Z,0.00
2022-11-09T00:38:59.378Z,0.00
2022-11-09T00:39:59.772Z,0.00
2022-11-09T00:41:00.236Z,0.00
2022-11-09T00:42:00.241Z,0.00
2022-11-09T00:42:59.337Z,0.00
2022-11-09T00:43:59.361Z,0.00
2022-11-09T00:44:59.309Z,0.00
2022-11-09T00:45:59.312Z,0.00
2022-11-09T00:46:59.289Z,0.00
2022-11-09T00:47:59.302Z,0.00
2022-11-09T00:48:59.269Z,0.00
2022-11-09T00:49:59.286Z,0.00
2022-11-09T00:50:59.251Z,0.00
2022-11-09T00:51:59.266Z,0.00
2022-11-09T00:52:59.229Z,0.00
2022-11-09T00:53:59.278Z,0.00
2022-11-09T00:54:59.211Z,0.00
2022-11-09T00:55:59.206Z,0.00
2022-11-09T00:56:59.188Z,0.00
2022-11-09T00:57:59.202Z,0.00
2022-11-09T00:58:59.158Z,0.00
2022-11-09T00:59:59.200Z,0.00
2022-11-09T01:00:59.199Z,0.00
2022-11-09T01:02:01.189Z,0.00
2022-11-09T01:02:59.122Z,0.00
2022-11-09T01:03:59.145Z,0.00
2022-11-09T01:04:59.733Z,0.00
2022-11-09T01:05:59.089Z,0.00
2022-11-09T01:06:59.108Z,0.00
2022-11-09T01:07:59.084Z,0.00
2022-11-09T01:08:59.055Z,0.00
2022-11-09T01:09:59.043Z,0.00
2022-11-09T01:10:59.029Z,0.00
2022-11-09T01:11:59.021Z,0.00
2022-11-09T01:12:59.268Z,0.00
2022-11-09T01:13:59.016Z,0.00
2022-11-09T01:14:58.979Z,0.00
2022-11-09T01:15:58.975Z,0.00
2022-11-09T01:16:58.961Z,0.00
2022-11-09T01:17:59.276Z,0.00
2022-11-09T01:19:01.756Z,0.00
2022-11-09T01:19:58.938Z,0.00
2022-11-09T01:20:58.928Z,0.00
2022-11-09T01:21:58.907Z,0.00
2022-11-09T01:22:58.920Z,0.00
2022-11-09T01:23:58.889Z,0.00
2022-11-09T01:25:00.329Z,0.00
2022-11-09T01:25:58.861Z,0.00
2022-11-09T01:26:59.875Z,0.00
2022-11-09T01:27:58.841Z,0.00
2022-11-09T01:28:58.833Z,0.00
2022-11-09T01:29:58.831Z,0.00
2022-11-09T01:30:58.829Z,0.00
2022-11-09T01:31:58.788Z,0.00
2022-11-09T01:32:58.797Z,0.00
2022-11-09T01:33:58.792Z,0.00
2022-11-09T01:34:58.772Z,0.00
2022-11-09T01:35:58.783Z,0.00
2022-11-09T01:36:58.744Z,0.00
2022-11-09T01:37:58.735Z,0.00
2022-11-09T01:38:58.736Z,0.00
2022-11-09T01:39:58.713Z,0.00
2022-11-09T01:40:58.713Z,0.00
2022-11-09T01:41:58.692Z,0.00
2022-11-09T01:42:58.674Z,0.00
2022-11-09T01:43:58.664Z,0.00
2022-11-09T01:44:58.650Z,0.00
2022-11-09T01:45:58.650Z,0.00
2022-11-09T01:46:58.655Z,0.00
2022-11-09T01:47:58.614Z,0.00
2022-11-09T01:48:58.599Z,0.00
2022-11-09T01:49:59.258Z,0.00
2022-11-09T01:50:58.604Z,0.00
2022-11-09T01:51:58.602Z,0.00
2022-11-09T01:52:58.569Z,0.00
2022-11-09T01:53:58.565Z,0.00
2022-11-09T01:54:59.255Z,0.00
2022-11-09T01:55:58.529Z,0.00
2022-11-09T01:56:58.543Z,0.00
2022-11-09T01:57:58.526Z,0.00
2022-11-09T01:58:58.510Z,0.00
2022-11-09T01:59:58.511Z,0.00
2022-11-09T02:00:58.535Z,0.00
2022-11-09T02:01:58.464Z,0.00
2022-11-09T02:02:58.463Z,0.00
2022-11-09T02:03:58.479Z,0.00
2022-11-09T02:04:58.434Z,0.00
2022-11-09T02:05:58.401Z,0.00
2022-11-09T02:06:59.537Z,0.00
2022-11-09T02:07:58.393Z,0.00
2022-11-09T02:08:58.437Z,0.00
2022-11-09T02:09:58.374Z,0.00
2022-11-09T02:10:58.374Z,0.00
2022-11-09T02:12:01.260Z,0.00
2022-11-09T02:12:58.348Z,0.00
2022-11-09T02:13:58.327Z,0.00
2022-11-09T02:14:58.349Z,0.00
2022-11-09T02:15:58.306Z,0.00
2022-11-09T02:16:58.300Z,0.00
2022-11-09T02:17:58.780Z,0.00
2022-11-09T02:18:58.284Z,0.00
2022-11-09T02:19:58.260Z,0.00
2022-11-09T02:21:00.320Z,0.00
2022-11-09T02:21:58.238Z,0.00
2022-11-09T02:22:59.303Z,0.00
2022-11-09T02:23:58.231Z,0.00
2022-11-09T02:24:58.750Z,0.00
2022-11-09T02:25:58.190Z,0.00
2022-11-09T02:27:19.188Z,0.00
2022-11-09T02:27:58.181Z,0.00
2022-11-09T02:28:58.157Z,0.00
2022-11-09T02:29:58.159Z,0.00
2022-11-09T02:31:00.204Z,0.00
2022-11-09T02:31:58.120Z,0.00
2022-11-09T02:32:58.125Z,0.00
2022-11-09T02:33:58.124Z,0.00
2022-11-09T02:34:58.093Z,0.00
2022-11-09T02:35:58.079Z,0.00
2022-11-09T02:36:58.082Z,0.00
2022-11-09T02:37:58.285Z,0.00
2022-11-09T02:38:58.060Z,0.00
2022-11-09T02:39:58.037Z,0.00
2022-11-09T02:40:58.022Z,0.00
2022-11-09T02:41:58.021Z,0.00
2022-11-09T02:42:57.998Z,0.00
2022-11-09T02:43:58.019Z,0.00
2022-11-09T02:44:57.985Z,0.00
2022-11-09T02:45:57.964Z,0.00
2022-11-09T02:46:57.982Z,0.00
2022-11-09T02:47:57.953Z,0.00
2022-11-09T02:48:57.939Z,0.00
2022-11-09T02:49:57.998Z,0.00
2022-11-09T02:50:57.924Z,0.00
2022-11-09T02:51:57.898Z,0.00
2022-11-09T02:52:57.949Z,0.00
2022-11-09T02:53:57.875Z,0.00
2022-11-09T02:54:58.792Z,0.00
2022-11-09T02:55:57.853Z,0.00
2022-11-09T02:56:58.290Z,0.00
2022-11-09T02:57:57.834Z,0.00
2022-11-09T02:58:57.830Z,0.00
2022-11-09T02:59:57.828Z,0.00
2022-11-09T03:00:57.829Z,0.00
2022-11-09T03:01:57.783Z,0.00
2022-11-09T03:02:57.769Z,0.00
2022-11-09T03:03:57.764Z,0.00
2022-11-09T03:04:57.782Z,0.00
2022-11-09T03:05:57.743Z,0.00
2022-11-09T03:06:57.814Z,0.00
2022-11-09T03:08:00.255Z,0.00
2022-11-09T03:08:57.713Z,0.00
2022-11-09T03:09:57.732Z,0.00
2022-11-09T03:10:57.694Z,0.00
2022-11-09T03:11:57.676Z,0.00
2022-11-09T03:12:57.682Z,0.00
2022-11-09T03:13:57.659Z,0.00
2022-11-09T03:14:57.653Z,0.00
2022-11-09T03:15:57.656Z,0.00
2022-11-09T03:16:57.608Z,0.00
2022-11-09T03:17:57.608Z,0.00
2022-11-09T03:18:57.613Z,0.00
2022-11-09T03:19:57.597Z,0.00
2022-11-09T03:20:57.569Z,0.00
2022-11-09T03:21:57.568Z,0.00
2022-11-09T03:22:57.545Z,0.00
2022-11-09T03:23:57.542Z,0.00
2022-11-09T03:24:57.537Z,0.00
2022-11-09T03:25:57.513Z,0.00
2022-11-09T03:26:57.517Z,0.00
2022-11-09T03:27:57.519Z,0.00
2022-11-09T03:28:57.479Z,0.00
2022-11-09T03:29:57.475Z,0.00
2022-11-09T03:30:57.447Z,0.00
2022-11-09T03:31:58.555Z,0.00
2022-11-09T03:33:00.246Z,0.00
2022-11-09T03:33:57.426Z,0.00
2022-11-09T03:35:00.253Z,0.00
2022-11-09T03:35:57.399Z,0.00
2022-11-09T03:36:57.384Z,0.00
2022-11-09T03:37:57.809Z,0.00
2022-11-09T03:38:58.260Z,0.00
2022-11-09T03:39:57.353Z,0.00
2022-11-09T03:40:57.340Z,0.00
2022-11-09T03:41:58.373Z,0.00
2022-11-09T03:42:57.367Z,0.00
2022-11-09T03:43:57.306Z,0.00
2022-11-09T03:44:57.297Z,0.00
2022-11-09T03:45:57.293Z,0.00
2022-11-09T03:46:57.273Z,0.00
2022-11-09T03:47:57.286Z,0.00
2022-11-09T03:48:57.238Z,0.00
2022-11-09T03:49:57.246Z,0.00
2022-11-09T03:50:57.225Z,0.00
2022-11-09T03:51:57.220Z,0.00
2022-11-09T03:52:57.762Z,0.00
2022-11-09T03:53:57.222Z,0.00
2022-11-09T03:54:57.191Z,0.00
2022-11-09T03:55:57.758Z,0.00
2022-11-09T03:56:57.172Z,0.00
2022-11-09T03:57:57.152Z,0.00
2022-11-09T03:58:57.154Z,0.00
2022-11-09T03:59:57.150Z,0.00
2022-11-09T04:00:57.134Z,0.00
2022-11-09T04:01:57.815Z,0.00
2022-11-09T04:02:57.100Z,0.00
2022-11-09T04:03:59.776Z,0.00
2022-11-09T04:04:57.075Z,0.00
2022-11-09T04:05:57.077Z,0.00
2022-11-09T04:06:57.176Z,0.00
2022-11-09T04:07:57.033Z,0.00
2022-11-09T04:08:57.027Z,0.00
2022-11-09T04:09:57.017Z,0.00
2022-11-09T04:10:56.998Z,0.00
2022-11-09T04:11:56.994Z,0.00
2022-11-09T04:12:56.998Z,0.00
2022-11-09T04:13:56.980Z,0.00
2022-11-09T04:14:56.990Z,0.00
2022-11-09T04:15:56.967Z,0.00
2022-11-09T04:16:56.931Z,0.00
2022-11-09T04:17:57.986Z,0.00
2022-11-09T04:18:56.913Z,0.00
2022-11-09T04:19:56.919Z,0.00
2022-11-09T04:20:56.886Z,0.00
2022-11-09T04:21:56.884Z,0.00
2022-11-09T04:22:56.863Z,0.00
2022-11-09T04:23:56.852Z,0.00
2022-11-09T04:24:56.842Z,0.00
2022-11-09T04:25:56.863Z,0.00
2022-11-09T04:26:56.821Z,0.00
2022-11-09T04:27:57.863Z,0.00
2022-11-09T04:28:56.794Z,0.00
2022-11-09T04:29:57.762Z,0.00
2022-11-09T04:30:56.823Z,0.00
2022-11-09T04:31:56.763Z,0.00
2022-11-09T04:32:58.790Z,0.00
2022-11-09T04:33:56.740Z,0.00
2022-11-09T04:34:56.732Z,0.00
2022-11-09T04:35:56.750Z,0.00
2022-11-09T04:36:59.266Z,0.00
2022-11-09T04:37:56.698Z,0.00
2022-11-09T04:38:56.690Z,0.00
2022-11-09T04:39:59.263Z,0.00
2022-11-09T04:40:56.684Z,0.00
2022-11-09T04:41:56.685Z,0.00
2022-11-09T04:42:56.722Z,0.00
2022-11-09T04:43:57.271Z,0.00
2022-11-09T04:44:56.607Z,0.00
2022-11-09T04:45:57.268Z,0.00
2022-11-09T04:46:56.645Z,0.00
2022-11-09T04:47:56.581Z,0.00
2022-11-09T04:48:56.586Z,0.00
2022-11-09T04:49:56.554Z,0.00
2022-11-09T04:50:58.594Z,0.00
2022-11-09T04:51:56.531Z,0.00
2022-11-09T04:52:56.528Z,0.00
2022-11-09T04:53:56.536Z,0.00
2022-11-09T04:55:03.269Z,0.00
2022-11-09T04:55:56.497Z,0.00
2022-11-09T04:56:56.483Z,0.00
2022-11-09T04:57:56.467Z,0.00
2022-11-09T04:58:56.477Z,0.00
2022-11-09T04:59:56.439Z,0.00
2022-11-09T05:00:56.435Z,0.00
2022-11-09T05:01:56.416Z,0.00
2022-11-09T05:02:56.419Z,0.00
2022-11-09T05:03:56.512Z,0.00
2022-11-09T05:04:56.382Z,0.00
2022-11-09T05:05:56.378Z,0.00
2022-11-09T05:06:56.400Z,0.00
2022-11-09T05:07:56.375Z,0.00
2022-11-09T05:08:56.795Z,0.00
2022-11-09T05:09:56.334Z,0.00
2022-11-09T05:10:56.316Z,0.00
2022-11-09T05:11:56.306Z,0.00
2022-11-09T05:12:56.308Z,0.00
2022-11-09T05:13:56.299Z,0.00
2022-11-09T05:14:56.283Z,0.00
2022-11-09T05:15:56.260Z,0.00
2022-11-09T05:16:56.258Z,0.00
2022-11-09T05:17:56.239Z,0.00
2022-11-09T05:19:17.276Z,0.00
2022-11-09T05:19:56.255Z,0.00
2022-11-09T05:20:56.237Z,0.00
2022-11-09T05:21:56.182Z,0.00
2022-11-09T05:22:56.182Z,0.00
2022-11-09T05:23:56.167Z,0.00
2022-11-09T05:24:56.173Z,0.00
2022-11-09T05:25:56.141Z,0.00
2022-11-09T05:26:56.150Z,0.00
2022-11-09T05:27:56.151Z,0.00
2022-11-09T05:28:57.128Z,0.00
2022-11-09T05:29:56.100Z,0.00
2022-11-09T05:30:56.096Z,0.00
2022-11-09T05:31:56.101Z,0.00
2022-11-09T05:32:56.067Z,0.00
2022-11-09T05:33:56.764Z,0.00
2022-11-09T05:34:56.079Z,0.00
2022-11-09T05:35:56.032Z,0.00
2022-11-09T05:37:02.284Z,0.00
2022-11-09T05:37:57.013Z,0.00
2022-11-09T05:38:57.065Z,0.00
2022-11-09T05:39:55.986Z,0.00
2022-11-09T05:40:55.982Z,0.00
2022-11-09T05:41:55.985Z,0.00
2022-11-09T05:42:55.968Z,0.00
2022-11-09T05:43:55.940Z,0.00
2022-11-09T05:44:55.927Z,0.00
2022-11-09T05:45:55.920Z,0.00
2022-11-09T05:46:55.924Z,0.00
2022-11-09T05:47:55.900Z,0.00
2022-11-09T05:48:55.883Z,0.00
2022-11-09T05:49:55.876Z,0.00
2022-11-09T05:50:55.926Z,0.00
2022-11-09T05:51:55.872Z,0.00
2022-11-09T05:52:55.837Z,0.00
2022-11-09T05:53:58.781Z,0.00
2022-11-09T05:54:55.818Z,0.00
2022-11-09T05:55:56.833Z,0.00
2022-11-09T05:56:55.788Z,0.00
2022-11-09T05:57:55.815Z,0.00
2022-11-09T05:58:55.777Z,0.00
2022-11-09T05:59:55.762Z,0.00
2022-11-09T06:00:55.741Z,0.00
2022-11-09T06:01:55.791Z,0.00
2022-11-09T06:02:55.742Z,0.00
2022-11-09T06:03:55.724Z,0.00
2022-11-09T06:04:55.694Z,0.00
2022-11-09T06:05:55.692Z,0.00
2022-11-09T06:06:55.831Z,0.00
2022-11-09T06:07:55.687Z,0.00
2022-11-09T06:08:55.663Z,0.00
2022-11-09T06:09:55.691Z,0.00
2022-11-09T06:10:55.635Z,0.00
2022-11-09T06:11:55.618Z,0.00
2022-11-09T06:12:55.614Z,0.00
2022-11-09T06:13:55.620Z,0.00
2022-11-09T06:14:55.597Z,0.00
2022-11-09T06:15:55.579Z,0.00
2022-11-09T06:16:55.573Z,0.00
2022-11-09T06:17:55.551Z,0.00
2022-11-09T06:18:55.569Z,0.00
2022-11-09T06:19:55.568Z,0.00
2022-11-09T06:20:55.530Z,0.00
2022-11-09T06:21:55.544Z,0.00
2022-11-09T06:22:59.959Z,0.00
2022-11-09T06:23:56.485Z,0.00
2022-11-09T06:24:55.480Z,0.00
2022-11-09T06:25:55.480Z,0.00
2022-11-09T06:26:58.271Z,0.00
2022-11-09T06:27:55.430Z,0.00
2022-11-09T06:28:56.284Z,0.00
2022-11-09T06:29:55.413Z,0.00
2022-11-09T06:30:55.434Z,0.00
2022-11-09T06:31:55.394Z,0.00
2022-11-09T06:32:55.387Z,0.00
2022-11-09T06:33:55.371Z,0.00
2022-11-09T06:34:55.394Z,0.00
2022-11-09T06:35:56.713Z,0.00
2022-11-09T06:36:57.462Z,0.00
2022-11-09T06:37:55.325Z,0.00
2022-11-09T06:38:56.459Z,0.00
2022-11-09T06:39:55.305Z,0.00
2022-11-09T06:40:55.317Z,0.00
2022-11-09T06:41:55.300Z,0.00
2022-11-09T06:42:55.328Z,0.00
2022-11-09T06:43:55.256Z,0.00
2022-11-09T06:44:55.247Z,0.00
2022-11-09T06:45:55.243Z,0.00
2022-11-09T06:46:55.243Z,0.00
2022-11-09T06:47:55.217Z,0.00
2022-11-09T06:48:55.200Z,5.62
2022-11-09T06:49:55.198Z,5.62
2022-11-09T06:50:55.176Z,5.62
2022-11-09T06:51:55.169Z,5.62
2022-11-09T06:52:55.182Z,5.62
2022-11-09T06:53:55.146Z,5.62
2022-11-09T06:54:55.148Z,5.62
2022-11-09T06:55:55.132Z,5.62
2022-11-09T06:56:55.116Z,5.62
2022-11-09T06:57:55.103Z,5.62
2022-11-09T06:58:55.105Z,5.62
2022-11-09T06:59:55.081Z,5.62
2022-11-09T07:00:55.119Z,5.62
2022-11-09T07:02:00.992Z,5.62
2022-11-09T07:02:56.044Z,5.62
2022-11-09T07:03:55.037Z,5.62
2022-11-09T07:04:55.038Z,5.62
2022-11-09T07:05:55.019Z,5.62
2022-11-09T07:06:55.062Z,5.62
2022-11-09T07:07:55.001Z,5.62
2022-11-09T07:08:54.984Z,5.62
2022-11-09T07:09:54.984Z,11.25
2022-11-09T07:10:55.004Z,11.25
2022-11-09T07:11:54.947Z,11.25
2022-11-09T07:12:54.955Z,11.25
2022-11-09T07:13:57.663Z,11.25
2022-11-09T07:14:54.913Z,11.25
2022-11-09T07:15:54.910Z,11.25
2022-11-09T07:16:54.896Z,11.25
2022-11-09T07:17:54.951Z,11.25
2022-11-09T07:18:54.869Z,11.25
2022-11-09T07:19:54.865Z,11.25
2022-11-09T07:20:54.841Z,11.25
2022-11-09T07:21:56.838Z,11.25
2022-11-09T07:22:57.781Z,11.25
2022-11-09T07:23:54.841Z,16.88
2022-11-09T07:24:55.308Z,16.88
2022-11-09T07:25:54.797Z,16.88
2022-11-09T07:26:56.352Z,16.88
2022-11-09T07:27:54.791Z,16.88
2022-11-09T07:28:54.789Z,16.88
2022-11-09T07:29:54.746Z,16.88
2022-11-09T07:30:56.292Z,16.88
2022-11-09T07:31:54.726Z,16.88
2022-11-09T07:33:08.827Z,16.88
2022-11-09T07:33:55.716Z,16.88
2022-11-09T07:34:54.691Z,16.88
2022-11-09T07:35:54.696Z,16.88
2022-11-09T07:36:54.675Z,16.88
2022-11-09T07:37:54.693Z,16.88
2022-11-09T07:38:54.676Z,16.88
2022-11-09T07:39:54.648Z,16.88
2022-11-09T07:40:55.281Z,22.50
2022-11-09T07:41:54.827Z,22.50
2022-11-09T07:42:54.623Z,22.50
2022-11-09T07:43:54.656Z,22.50
2022-11-09T07:44:54.584Z,22.50
2022-11-09T07:45:54.594Z,16.88
2022-11-09T07:46:54.579Z,22.50
2022-11-09T07:47:54.615Z,22.50
2022-11-09T07:48:54.538Z,22.50
2022-11-09T07:49:54.578Z,22.50
2022-11-09T07:50:54.563Z,22.50
2022-11-09T07:51:55.557Z,28.12
2022-11-09T07:52:54.497Z,28.12
2022-11-09T07:53:54.501Z,28.12
2022-11-09T07:54:54.491Z,28.12
2022-11-09T07:55:54.468Z,28.12
2022-11-09T07:56:54.464Z,33.75
2022-11-09T07:57:54.441Z,28.12
2022-11-09T07:58:55.539Z,28.12
2022-11-09T07:59:54.528Z,33.75
2022-11-09T08:00:54.447Z,33.75
2022-11-09T08:01:54.467Z,33.75
2022-11-09T08:02:54.393Z,33.75
2022-11-09T08:03:55.316Z,33.75
2022-11-09T08:04:57.279Z,33.75
2022-11-09T08:05:55.370Z,33.75
2022-11-09T08:06:55.362Z,33.75
2022-11-09T08:07:54.334Z,39.38
2022-11-09T08:08:58.848Z,39.38
2022-11-09T08:09:54.306Z,50.62
2022-11-09T08:10:54.299Z,50.62
2022-11-09T08:11:55.283Z,50.62
2022-11-09T08:12:54.278Z,45.00
2022-11-09T08:13:54.271Z,45.00
2022-11-09T08:14:54.291Z,45.00
2022-11-09T08:15:56.311Z,50.62
2022-11-09T08:16:54.330Z,45.00
2022-11-09T08:17:54.327Z,45.00
2022-11-09T08:18:54.211Z,45.00
2022-11-09T08:19:54.222Z,45.00
2022-11-09T08:20:54.211Z,45.00
2022-11-09T08:21:54.191Z,45.00
2022-11-09T08:22:54.160Z,45.00
2022-11-09T08:23:54.308Z,45.00
2022-11-09T08:25:08.788Z,50.62
2022-11-09T08:25:54.162Z,50.62
2022-11-09T08:26:54.121Z,50.62
2022-11-09T08:27:54.785Z,50.62
2022-11-09T08:28:54.106Z,50.62
2022-11-09T08:29:56.181Z,45.00
2022-11-09T08:30:54.805Z,45.00
2022-11-09T08:31:54.066Z,45.00
2022-11-09T08:32:54.055Z,45.00
2022-11-09T08:33:54.059Z,45.00
2022-11-09T08:34:54.050Z,45.00
2022-11-09T08:35:55.048Z,45.00
2022-11-09T08:36:54.785Z,45.00
2022-11-09T08:37:54.025Z,45.00
2022-11-09T08:38:53.992Z,45.00
2022-11-09T08:39:53.985Z,45.00
2022-11-09T08:40:56.782Z,45.00
2022-11-09T08:41:53.970Z,45.00
2022-11-09T08:42:53.950Z,45.00
2022-11-09T08:43:54.831Z,45.00
2022-11-09T08:44:53.960Z,45.00
2022-11-09T08:45:53.952Z,45.00
2022-11-09T08:46:53.947Z,45.00
2022-11-09T08:47:53.897Z,45.00
2022-11-09T08:48:53.882Z,45.00
2022-11-09T08:49:53.885Z,45.00
2022-11-09T08:51:00.785Z,45.00
2022-11-09T08:51:53.882Z,45.00
2022-11-09T08:52:54.885Z,45.00
2022-11-09T08:53:53.828Z,45.00
2022-11-09T08:54:53.826Z,50.62
2022-11-09T08:55:53.806Z,50.62
2022-11-09T08:56:53.837Z,50.62
2022-11-09T08:57:54.286Z,50.62
2022-11-09T08:58:53.781Z,56.25
2022-11-09T09:00:00.299Z,56.25
2022-11-09T09:00:53.754Z,61.88
2022-11-09T09:01:54.343Z,61.88
2022-11-09T09:02:53.854Z,73.12
2022-11-09T09:03:53.721Z,78.75
2022-11-09T09:05:00.289Z,84.38
2022-11-09T09:05:53.805Z,73.12
2022-11-09T09:06:53.738Z,73.12
2022-11-09T09:07:53.682Z,84.38
2022-11-09T09:08:53.686Z,73.12
2022-11-09T09:09:53.660Z,101.25
2022-11-09T09:10:53.692Z,67.50
2022-11-09T09:11:53.667Z,84.38
2022-11-09T09:12:53.643Z,84.38
2022-11-09T09:13:56.291Z,67.50
2022-11-09T09:14:53.610Z,78.75
2022-11-09T09:16:00.289Z,61.88
2022-11-09T09:16:56.304Z,84.38
2022-11-09T09:17:53.587Z,90.00
2022-11-09T09:18:53.565Z,90.00
2022-11-09T09:19:53.542Z,101.25
2022-11-09T09:20:54.299Z,90.00
2022-11-09T09:21:54.282Z,73.12
2022-11-09T09:22:53.512Z,90.00
2022-11-09T09:23:53.519Z,78.75
2022-11-09T09:24:54.503Z,73.12
2022-11-09T09:25:58.502Z,78.75
2022-11-09T09:26:53.470Z,73.12
2022-11-09T09:27:53.446Z,67.50
2022-11-09T09:28:53.470Z,84.38
2022-11-09T09:29:53.428Z,78.75
2022-11-09T09:30:54.330Z,67.50
2022-11-09T09:31:53.405Z,67.50
2022-11-09T09:32:54.287Z,73.12
2022-11-09T09:33:53.390Z,67.50
2022-11-09T09:34:53.403Z,73.12
2022-11-09T09:35:54.399Z,67.50
2022-11-09T09:36:53.359Z,73.12
2022-11-09T09:37:53.340Z,61.88
2022-11-09T09:38:53.324Z,67.50
2022-11-09T09:40:00.308Z,78.75
2022-11-09T09:40:53.325Z,61.88
2022-11-09T09:41:53.299Z,73.12
2022-11-09T09:42:53.282Z,73.12
2022-11-09T09:43:53.275Z,78.75
2022-11-09T09:44:53.262Z,78.75
2022-11-09T09:45:53.316Z,67.50
2022-11-09T09:46:53.256Z,67.50
2022-11-09T09:47:54.276Z,90.00
2022-11-09T09:48:53.214Z,84.38
2022-11-09T09:49:53.862Z,78.75
2022-11-09T09:50:53.208Z,95.62
2022-11-09T09:51:55.807Z,84.38
2022-11-09T09:53:10.930Z,78.75
2022-11-09T09:53:54.161Z,106.88
2022-11-09T09:54:53.154Z,84.38
2022-11-09T09:55:53.151Z,95.62
2022-11-09T09:56:53.135Z,106.88
2022-11-09T09:57:53.113Z,106.88
2022-11-09T09:58:53.110Z,95.62
2022-11-09T09:59:53.088Z,123.75
2022-11-09T10:00:55.845Z,106.88
2022-11-09T10:01:53.092Z,106.88
2022-11-09T10:02:53.071Z,118.12
2022-11-09T10:03:53.067Z,101.25
2022-11-09T10:04:53.127Z,123.75
2022-11-09T10:05:53.024Z,118.12
2022-11-09T10:06:53.072Z,118.12
2022-11-09T10:07:53.032Z,90.00
2022-11-09T10:08:52.999Z,101.25
2022-11-09T10:09:52.982Z,129.38
2022-11-09T10:10:55.813Z,106.88
2022-11-09T10:11:55.299Z,95.62
2022-11-09T10:12:53.803Z,106.88
2022-11-09T10:13:52.962Z,78.75
2022-11-09T10:14:52.941Z,95.62
2022-11-09T10:15:52.912Z,84.38
2022-11-09T10:16:53.804Z,78.75
2022-11-09T10:17:52.889Z,84.38
2022-11-09T10:18:52.885Z,90.00
2022-11-09T10:19:52.891Z,90.00
2022-11-09T10:20:53.223Z,90.00
2022-11-09T10:21:53.803Z,78.75
2022-11-09T10:22:52.886Z,90.00
2022-11-09T10:23:52.833Z,90.00
2022-11-09T10:25:18.442Z,90.00
2022-11-09T10:26:14.396Z,84.38
2022-11-09T10:26:53.793Z,95.62
2022-11-09T10:27:52.789Z,78.75
2022-11-09T10:29:16.172Z,73.12
2022-11-09T10:29:53.809Z,84.38
2022-11-09T10:30:52.757Z,78.75
2022-11-09T10:31:53.303Z,84.38
2022-11-09T10:32:52.728Z,84.38
2022-11-09T10:33:52.710Z,73.12
2022-11-09T10:34:53.301Z,73.12
2022-11-09T10:35:52.718Z,73.12
2022-11-09T10:36:52.687Z,78.75
2022-11-09T10:37:52.669Z,84.38
2022-11-09T10:38:52.679Z,90.00
2022-11-09T10:39:52.690Z,90.00
2022-11-09T10:40:52.668Z,90.00
2022-11-09T10:41:53.659Z,90.00
2022-11-09T10:42:52.651Z,90.00
2022-11-09T10:43:52.618Z,90.00
2022-11-09T10:44:52.606Z,78.75
2022-11-09T10:45:52.596Z,95.62
2022-11-09T10:46:53.306Z,95.62
2022-11-09T10:47:52.571Z,84.38
2022-11-09T10:48:52.555Z,112.50
2022-11-09T10:49:53.311Z,101.25
2022-11-09T10:50:53.396Z,135.00
2022-11-09T10:51:52.523Z,140.62
2022-11-09T10:52:52.528Z,106.88
2022-11-09T10:53:52.528Z,101.25
2022-11-09T10:54:52.510Z,95.62
2022-11-09T10:55:53.534Z,101.25
2022-11-09T10:57:05.485Z,112.50
2022-11-09T10:57:53.438Z,106.88
2022-11-09T10:58:53.456Z,106.88
2022-11-09T10:59:52.423Z,101.25
2022-11-09T11:00:52.418Z,90.00
2022-11-09T11:01:52.528Z,84.38
2022-11-09T11:02:52.393Z,84.38
2022-11-09T11:03:52.380Z,84.38
2022-11-09T11:04:52.393Z,84.38
2022-11-09T11:05:52.354Z,90.00
2022-11-09T11:06:52.368Z,90.00
2022-11-09T11:07:52.330Z,90.00
2022-11-09T11:08:52.341Z,95.62
2022-11-09T11:09:53.304Z,118.12
2022-11-09T11:11:02.233Z,95.62
2022-11-09T11:11:53.286Z,95.62
2022-11-09T11:12:53.345Z,106.88
2022-11-09T11:13:52.260Z,140.62
2022-11-09T11:14:52.330Z,123.75
2022-11-09T11:15:52.239Z,95.62
2022-11-09T11:16:54.418Z,106.88
2022-11-09T11:17:52.219Z,123.75
2022-11-09T11:18:52.815Z,90.00
2022-11-09T11:19:52.212Z,95.62
2022-11-09T11:20:52.192Z,101.25
2022-11-09T11:21:52.178Z,84.38
2022-11-09T11:22:52.196Z,90.00
2022-11-09T11:23:52.805Z,101.25
2022-11-09T11:24:52.148Z,101.25
2022-11-09T11:25:52.813Z,101.25
2022-11-09T11:26:52.826Z,123.75
2022-11-09T11:27:52.137Z,123.75
2022-11-09T11:28:52.116Z,118.12
2022-11-09T11:29:52.092Z,118.12
2022-11-09T11:30:52.890Z,78.75
2022-11-09T11:31:52.069Z,78.75
2022-11-09T11:32:52.081Z,112.50
2022-11-09T11:33:52.807Z,95.62
2022-11-09T11:35:01.128Z,73.12
2022-11-09T11:35:53.019Z,78.75
2022-11-09T11:36:52.823Z,67.50
2022-11-09T11:37:52.014Z,101.25
2022-11-09T11:38:52.020Z,106.88
2022-11-09T11:39:52.809Z,112.50
2022-11-09T11:40:51.980Z,112.50
2022-11-09T11:41:51.985Z,112.50
2022-11-09T11:42:51.988Z,101.25
2022-11-09T11:43:54.808Z,118.12
2022-11-09T11:45:02.985Z,123.75
2022-11-09T11:45:52.924Z,123.75
2022-11-09T11:46:51.931Z,123.75
2022-11-09T11:47:51.883Z,129.38
2022-11-09T11:49:12.887Z,146.25
2022-11-09T11:49:52.804Z,146.25
2022-11-09T11:50:51.858Z,123.75
2022-11-09T11:51:51.846Z,129.38
2022-11-09T11:52:52.831Z,135.00
2022-11-09T11:53:51.829Z,135.00
2022-11-09T11:54:51.824Z,129.38
2022-11-09T11:55:52.869Z,135.00
2022-11-09T11:56:51.802Z,135.00
2022-11-09T11:57:51.783Z,135.00
2022-11-09T11:58:51.803Z,140.62
2022-11-09T11:59:52.809Z,146.25
2022-11-09T12:00:51.744Z,135.00
2022-11-09T12:01:56.836Z,123.75
2022-11-09T12:02:51.776Z,129.38
2022-11-09T12:03:51.741Z,140.62
2022-11-09T12:04:51.701Z,146.25
2022-11-09T12:05:51.689Z,151.88
2022-11-09T12:06:51.721Z,151.88
2022-11-09T12:07:56.923Z,146.25
2022-11-09T12:08:52.674Z,135.00
2022-11-09T12:09:51.645Z,146.25
2022-11-09T12:10:51.689Z,151.88
2022-11-09T12:11:51.647Z,151.88
2022-11-09T12:12:51.614Z,135.00
2022-11-09T12:13:51.631Z,146.25
2022-11-09T12:14:51.896Z,146.25
2022-11-09T12:15:51.672Z,146.25
2022-11-09T12:16:51.563Z,151.88
2022-11-09T12:17:51.558Z,157.50
2022-11-09T12:18:51.570Z,168.75
2022-11-09T12:19:51.529Z,180.00
2022-11-09T12:20:51.542Z,174.38
2022-11-09T12:21:51.513Z,174.38
2022-11-09T12:22:52.318Z,174.38
2022-11-09T12:23:51.516Z,168.75
2022-11-09T12:24:51.498Z,163.12
2022-11-09T12:25:51.466Z,151.88
2022-11-09T12:27:10.795Z,163.12
2022-11-09T12:27:52.450Z,180.00
2022-11-09T12:28:51.456Z,146.25
2022-11-09T12:29:51.431Z,163.12
2022-11-09T12:30:51.430Z,129.38
2022-11-09T12:31:51.423Z,135.00
2022-11-09T12:32:51.385Z,135.00
2022-11-09T12:33:51.389Z,118.12
2022-11-09T12:34:51.390Z,129.38
2022-11-09T12:35:51.418Z,135.00
2022-11-09T12:36:51.370Z,123.75
2022-11-09T12:37:51.339Z,135.00
2022-11-09T12:38:51.322Z,146.25
2022-11-09T12:39:51.327Z,146.25
2022-11-09T12:40:51.332Z,146.25
2022-11-09T12:41:51.332Z,163.12
2022-11-09T12:42:51.277Z,129.38
2022-11-09T12:43:53.313Z,135.00
2022-11-09T12:44:51.256Z,157.50
2022-11-09T12:45:51.255Z,151.88
2022-11-09T12:46:51.278Z,135.00
2022-11-09T12:47:51.829Z,140.62
2022-11-09T12:48:51.209Z,146.25
2022-11-09T12:49:51.210Z,163.12
2022-11-09T12:50:51.285Z,157.50
2022-11-09T12:51:54.349Z,146.25
2022-11-09T12:52:52.212Z,151.88
2022-11-09T12:53:51.155Z,135.00
2022-11-09T12:54:51.165Z,146.25
2022-11-09T12:55:51.135Z,95.62
2022-11-09T12:56:51.129Z,157.50
2022-11-09T12:57:51.114Z,157.50
2022-11-09T12:58:51.115Z,140.62
2022-11-09T12:59:51.105Z,73.12
2022-11-09T13:00:51.212Z,78.75
2022-11-09T13:01:51.245Z,78.75
2022-11-09T13:02:51.101Z,67.50